createdAt,value
2018-05-08T00:02:10.370Z,4.60
2018-05-08T00:04:37.813Z,4.10
2018-05-08T00:07:05.274Z,4.90
2018-05-08T00:09:32.685Z,4.20
2018-05-08T00:12:00.892Z,4.50
2018-05-08T00:14:28.330Z,5.03
2018-05-08T00:16:55.787Z,5.73
2018-05-08T00:19:23.210Z,5.90
2018-05-08T00:21:50.641Z,4.80
2018-05-08T00:24:18.093Z,4.53
2018-05-08T00:26:45.520Z,4.70
2018-05-08T00:29:12.965Z,4.17
2018-05-08T00:31:41.153Z,4.00
2018-05-08T00:34:08.582Z,3.93
2018-05-08T00:36:36.022Z,4.00
2018-05-08T00:39:03.495Z,3.70
2018-05-08T00:41:30.930Z,4.40
2018-05-08T00:43:58.393Z,3.83
2018-05-08T00:46:25.818Z,4.47
2018-05-08T00:48:53.252Z,3.70
2018-05-08T00:51:20.704Z,3.53
2018-05-08T00:53:48.127Z,3.43
2018-05-08T00:56:16.330Z,3.50
2018-05-08T00:58:43.758Z,3.97
2018-05-08T01:01:11.230Z,3.67
2018-05-08T01:03:38.658Z,3.60
2018-05-08T01:06:06.141Z,4.00
2018-05-08T01:08:33.578Z,3.17
2018-05-08T01:11:00.999Z,3.90
2018-05-08T01:13:28.435Z,3.63
2018-05-08T01:15:55.868Z,3.50
2018-05-08T01:18:24.067Z,3.53
2018-05-08T01:20:51.498Z,3.83
2018-05-08T01:23:18.921Z,3.17
2018-05-08T01:25:46.362Z,3.90
2018-05-08T01:28:13.805Z,4.70
2018-05-08T01:30:41.266Z,3.77
2018-05-08T01:33:08.693Z,3.47
2018-05-08T01:35:36.146Z,3.90
2018-05-08T01:38:04.351Z,4.43
2018-05-08T01:40:31.796Z,3.73
2018-05-08T01:42:59.279Z,3.30
2018-05-08T01:45:26.721Z,3.67
2018-05-08T01:47:54.162Z,3.97
2018-05-08T01:50:21.603Z,4.27
2018-05-08T01:52:49.059Z,4.13
2018-05-08T01:55:16.507Z,4.10
2018-05-08T01:57:43.955Z,3.83
2018-05-08T02:00:11.403Z,3.60
2018-05-08T02:02:38.846Z,4.10
2018-05-08T02:05:06.359Z,3.50
2018-05-08T02:07:33.818Z,4.80
2018-05-08T02:10:01.254Z,4.10
2018-05-08T02:12:28.694Z,4.40
2018-05-08T02:14:56.129Z,4.33
2018-05-08T02:17:23.566Z,6.30
2018-05-08T02:19:51.003Z,5.43
2018-05-08T02:22:18.442Z,4.70
2018-05-08T02:24:46.633Z,4.37
2018-05-08T02:27:14.083Z,5.13
2018-05-08T02:29:41.518Z,4.80
2018-05-08T02:32:09.709Z,4.57
2018-05-08T02:34:37.150Z,3.90
2018-05-08T02:37:04.576Z,4.83
2018-05-08T02:39:32.020Z,4.40
2018-05-08T02:41:59.447Z,4.60
2018-05-08T02:44:26.882Z,4.80
2018-05-08T02:46:54.311Z,4.30
2018-05-08T02:49:21.798Z,4.60
2018-05-08T02:51:49.226Z,4.90
2018-05-08T02:54:16.666Z,4.77
2018-05-08T02:56:44.118Z,6.43
2018-05-08T02:59:11.546Z,5.60
2018-05-08T03:01:39.015Z,5.80
2018-05-08T03:04:06.454Z,6.67
2018-05-08T03:06:33.883Z,4.43
2018-05-08T03:09:01.321Z,4.67
2018-05-08T03:11:28.920Z,4.53
2018-05-08T03:13:56.363Z,4.70
2018-05-08T03:16:23.814Z,5.30
2018-05-08T03:18:51.259Z,5.20
2018-05-08T03:21:18.718Z,4.60
2018-05-08T03:23:46.151Z,4.80
2018-05-08T03:26:13.598Z,4.90
2018-05-08T03:28:41.086Z,4.77
2018-05-08T03:31:08.538Z,5.27
2018-05-08T03:33:36.018Z,5.60
2018-05-08T03:36:04.229Z,5.17
2018-05-08T03:38:31.669Z,4.87
2018-05-08T03:40:59.101Z,4.57
2018-05-08T03:43:26.543Z,4.90
2018-05-08T03:45:53.973Z,5.27
2018-05-08T03:48:21.422Z,4.43
2018-05-08T03:50:48.879Z,4.70
2018-05-08T03:53:16.294Z,4.57
2018-05-08T03:55:44.695Z,5.07
2018-05-08T03:58:12.118Z,5.73
2018-05-08T04:00:51.436Z,5.40
2018-05-08T04:03:30.687Z,5.40
2018-05-08T04:06:15.599Z,5.30
2018-05-08T04:08:43.035Z,4.60
2018-05-08T04:11:11.218Z,5.00
2018-05-08T04:13:38.661Z,5.17
2018-05-08T04:16:06.110Z,5.53
2018-05-08T04:18:33.542Z,5.70
2018-05-08T04:21:01.020Z,4.80
2018-05-08T04:23:28.454Z,5.37
2018-05-08T04:25:55.906Z,5.80
2018-05-08T04:28:23.359Z,5.70
2018-05-08T04:30:50.835Z,5.17
2018-05-08T04:33:18.265Z,5.20
2018-05-08T04:35:45.741Z,5.60
2018-05-08T04:38:13.218Z,5.53
2018-05-08T04:40:40.658Z,5.13
2018-05-08T04:43:08.118Z,5.73
2018-05-08T04:45:35.564Z,6.43
2018-05-08T04:48:03.007Z,5.70
2018-05-08T04:50:30.506Z,5.57
2018-05-08T04:52:57.936Z,5.40
2018-05-08T04:55:25.394Z,5.60
2018-05-08T04:57:52.843Z,5.43
2018-05-08T05:00:20.339Z,5.50
2018-05-08T05:02:47.841Z,5.23
2018-05-08T05:05:15.222Z,5.60
2018-05-08T05:07:42.683Z,5.30
2018-05-08T05:10:10.152Z,7.23
2018-05-08T05:12:37.574Z,6.43
2018-05-08T05:15:05.009Z,5.40
2018-05-08T05:17:32.435Z,5.53
2018-05-08T05:19:59.895Z,5.20
2018-05-08T05:22:28.140Z,5.03
2018-05-08T05:24:55.577Z,4.57
2018-05-08T05:27:23.036Z,5.30
2018-05-08T05:29:50.455Z,5.83
2018-05-08T05:32:17.890Z,5.20
2018-05-08T05:34:45.317Z,5.37
2018-05-08T05:37:12.757Z,6.30
2018-05-08T05:39:40.219Z,6.27
2018-05-08T05:42:07.666Z,6.13
2018-05-08T05:44:35.195Z,5.43
2018-05-08T05:47:02.623Z,5.67
2018-05-08T05:49:30.067Z,4.60
2018-05-08T05:51:57.495Z,4.77
2018-05-08T05:54:24.930Z,5.47
2018-05-08T05:56:52.372Z,5.20
2018-05-08T05:59:20.561Z,6.20
2018-05-08T06:01:47.995Z,6.30
2018-05-08T06:04:15.441Z,5.67
2018-05-08T06:06:42.938Z,5.73
2018-05-08T06:09:10.359Z,5.70
2018-05-08T06:11:37.816Z,5.50
2018-05-08T06:14:05.234Z,5.93
2018-05-08T06:16:32.682Z,5.60
2018-05-08T06:19:00.121Z,5.03
2018-05-08T06:21:27.566Z,5.73
2018-05-08T06:23:55.798Z,5.70
2018-05-08T06:26:23.242Z,4.90
2018-05-08T06:28:50.670Z,5.80
2018-05-08T06:31:18.141Z,5.90
2018-05-08T06:33:45.625Z,5.77
2018-05-08T06:36:13.062Z,5.50
2018-05-08T06:38:40.522Z,5.23
2018-05-08T06:41:07.969Z,5.63
2018-05-08T06:43:35.427Z,5.17
2018-05-08T06:46:02.872Z,6.50
2018-05-08T06:48:30.290Z,5.83
2018-05-08T06:50:57.759Z,4.63
2018-05-08T06:53:25.236Z,4.83
2018-05-08T06:55:52.673Z,5.20
2018-05-08T06:58:20.107Z,4.70
2018-05-08T07:00:47.526Z,5.60
2018-05-08T07:03:14.985Z,7.30
2018-05-08T07:05:42.441Z,6.10
2018-05-08T07:08:09.843Z,4.70
2018-05-08T07:10:37.270Z,4.90
2018-05-08T07:13:04.870Z,4.77
2018-05-08T07:15:32.306Z,5.77
2018-05-08T07:17:59.742Z,4.23
2018-05-08T07:20:27.186Z,5.00
2018-05-08T07:22:54.640Z,4.80
2018-05-08T07:25:22.074Z,4.23
2018-05-08T07:27:49.502Z,5.10
2018-05-08T07:30:16.942Z,5.63
2018-05-08T07:32:44.386Z,5.10
2018-05-08T07:35:11.966Z,4.33
2018-05-08T07:37:39.411Z,5.00
2018-05-08T07:40:06.846Z,5.50
2018-05-08T07:42:34.286Z,4.90
2018-05-08T07:45:01.725Z,5.03
2018-05-08T07:47:29.914Z,4.33
2018-05-08T07:49:57.345Z,4.30
2018-05-08T07:52:24.775Z,4.90
2018-05-08T07:54:52.206Z,5.13
2018-05-08T07:57:19.754Z,4.37
2018-05-08T07:59:47.192Z,4.33
2018-05-08T08:02:15.386Z,5.87
2018-05-08T08:04:42.943Z,4.30
2018-05-08T08:07:11.200Z,4.27
2018-05-08T08:09:38.643Z,4.67
2018-05-08T08:12:06.106Z,4.60
2018-05-08T08:14:33.554Z,5.13
2018-05-08T08:17:00.990Z,4.40
2018-05-08T08:19:28.439Z,4.17
2018-05-08T08:21:55.905Z,4.93
2018-05-08T08:24:23.360Z,4.23
2018-05-08T08:26:50.811Z,4.60
2018-05-08T08:29:18.273Z,3.73
2018-05-08T08:31:45.739Z,4.70
2018-05-08T08:34:13.230Z,4.30
2018-05-08T08:36:40.711Z,4.00
2018-05-08T08:39:08.166Z,4.10
2018-05-08T08:41:35.813Z,3.90
2018-05-08T08:44:03.255Z,5.63
2018-05-08T08:46:31.495Z,4.97
2018-05-08T08:48:58.938Z,4.20
2018-05-08T08:51:26.399Z,4.43
2018-05-08T08:53:53.858Z,3.90
2018-05-08T08:56:21.309Z,3.50
2018-05-08T08:58:48.780Z,4.40
2018-05-08T09:01:16.236Z,3.37
2018-05-08T09:03:43.872Z,3.90
2018-05-08T09:06:11.347Z,4.23
2018-05-08T09:08:38.784Z,3.90
2018-05-08T09:11:06.244Z,4.70
2018-05-08T09:13:33.696Z,3.97
2018-05-08T09:16:01.126Z,3.80
2018-05-08T09:18:28.555Z,3.83
2018-05-08T09:20:56.022Z,3.00
2018-05-08T09:23:23.487Z,4.03
2018-05-08T09:25:50.928Z,3.20
2018-05-08T09:28:18.366Z,3.33
2018-05-08T09:30:45.837Z,3.53
2018-05-08T09:33:13.282Z,4.00
2018-05-08T09:35:40.729Z,3.07
2018-05-08T09:38:08.181Z,3.00
2018-05-08T09:40:36.498Z,3.90
2018-05-08T09:43:03.948Z,3.40
2018-05-08T09:45:31.522Z,3.13
2018-05-08T09:47:59.721Z,3.53
2018-05-08T09:50:27.222Z,2.83
2018-05-08T09:52:54.665Z,3.40
2018-05-08T09:55:22.121Z,2.90
2018-05-08T09:57:49.564Z,3.57
2018-05-08T10:00:16.987Z,3.07
2018-05-08T10:02:44.422Z,2.67
2018-05-08T10:05:11.870Z,2.80
2018-05-08T10:07:39.320Z,2.73
2018-05-08T10:10:06.778Z,2.83
2018-05-08T10:12:34.238Z,2.53
2018-05-08T10:15:01.688Z,3.50
2018-05-08T10:17:29.117Z,3.67
2018-05-08T10:19:56.575Z,3.27
2018-05-08T10:22:24.030Z,2.87
2018-05-08T10:24:51.460Z,2.90
2018-05-08T10:27:18.900Z,2.70
2018-05-08T10:29:46.374Z,3.03
2018-05-08T10:32:13.821Z,3.10
2018-05-08T10:34:42.040Z,3.03
2018-05-08T10:37:09.511Z,3.40
2018-05-08T10:39:36.954Z,2.60
2018-05-08T10:42:04.419Z,2.70
2018-05-08T10:44:31.827Z,2.90
2018-05-08T10:46:59.266Z,3.20
2018-05-08T10:49:26.703Z,2.20
2018-05-08T10:51:54.984Z,2.60
2018-05-08T10:54:22.428Z,3.03
2018-05-08T10:56:49.860Z,2.60
2018-05-08T10:59:17.328Z,3.00
2018-05-08T11:01:44.785Z,3.30
2018-05-08T11:04:12.210Z,3.90
2018-05-08T11:06:40.422Z,3.00
2018-05-08T11:09:07.854Z,2.57
2018-05-08T11:11:35.303Z,2.27
2018-05-08T11:14:02.782Z,2.13
2018-05-08T11:16:30.225Z,2.67
2018-05-08T11:18:57.653Z,2.90
2018-05-08T11:21:25.080Z,2.93
2018-05-08T11:23:52.554Z,2.37
2018-05-08T11:26:19.985Z,2.33
2018-05-08T11:28:47.442Z,2.50
2018-05-08T11:31:14.853Z,2.87
2018-05-08T11:33:42.291Z,2.67
2018-05-08T11:36:10.476Z,2.70
2018-05-08T11:38:37.933Z,2.57
2018-05-08T11:41:05.441Z,3.30
2018-05-08T11:43:32.900Z,3.30
2018-05-08T11:46:00.348Z,2.53
2018-05-08T11:48:27.777Z,3.63
2018-05-08T11:50:55.222Z,9.17
2018-05-08T11:53:22.674Z,3.00
2018-05-08T11:55:50.099Z,2.63
2018-05-08T11:58:17.830Z,2.20
2018-05-08T12:00:45.242Z,2.47
2018-05-08T12:03:13.664Z,2.80
2018-05-08T12:05:41.128Z,2.07
2018-05-08T12:08:08.585Z,2.00
2018-05-08T12:10:36.002Z,2.77
2018-05-08T12:13:04.215Z,1.97
2018-05-08T12:15:31.654Z,3.63
2018-05-08T12:17:59.154Z,2.73
2018-05-08T12:20:26.597Z,2.40
2018-05-08T12:22:54.243Z,2.80
2018-05-08T12:25:21.643Z,2.90
2018-05-08T12:27:49.096Z,2.60
2018-05-08T12:30:16.539Z,2.37
2018-05-08T12:32:43.977Z,2.37
2018-05-08T12:35:11.413Z,2.40
2018-05-08T12:37:38.846Z,2.53
2018-05-08T12:40:06.275Z,2.30
2018-05-08T12:42:33.746Z,2.10
2018-05-08T12:45:01.178Z,2.03
2018-05-08T12:47:28.813Z,2.90
2018-05-08T12:49:56.229Z,3.10
2018-05-08T12:52:24.445Z,2.23
2018-05-08T12:54:51.866Z,2.00
2018-05-08T12:57:19.316Z,2.93
2018-05-08T12:59:46.771Z,2.17
2018-05-08T13:02:14.238Z,1.80
2018-05-08T13:04:41.728Z,1.90
2018-05-08T13:07:09.142Z,2.00
2018-05-08T13:09:36.569Z,1.90
2018-05-08T13:12:04.018Z,1.80
2018-05-08T13:14:31.464Z,1.90
2018-05-08T13:16:58.899Z,2.33
2018-05-08T13:19:26.327Z,2.17
2018-05-08T13:21:54.515Z,2.00
2018-05-08T13:24:22.017Z,3.53
2018-05-08T13:26:49.380Z,2.00
2018-05-08T13:29:16.829Z,2.30
2018-05-08T13:31:44.279Z,1.57
2018-05-08T13:34:11.734Z,1.90
2018-05-08T13:36:39.221Z,2.27
2018-05-08T13:39:06.603Z,2.30
2018-05-08T13:41:34.826Z,2.57
2018-05-08T13:44:02.258Z,2.53
2018-05-08T13:46:29.707Z,2.30
2018-05-08T13:48:57.135Z,2.10
2018-05-08T13:51:24.582Z,2.50
2018-05-08T13:53:52.010Z,2.30
2018-05-08T13:56:19.439Z,2.10
2018-05-08T13:58:46.894Z,2.10
2018-05-08T14:01:14.331Z,2.03
2018-05-08T14:03:42.754Z,3.77
2018-05-08T14:06:10.169Z,2.83
2018-05-08T14:08:38.397Z,2.30
2018-05-08T14:11:05.849Z,2.20
2018-05-08T14:13:33.295Z,2.07
2018-05-08T14:16:00.738Z,1.93
2018-05-08T14:18:28.210Z,2.60
2018-05-08T14:20:55.869Z,1.90
2018-05-08T14:23:23.330Z,2.33
2018-05-08T14:25:50.739Z,2.17
2018-05-08T14:28:18.946Z,2.50
2018-05-08T14:30:46.372Z,2.40
2018-05-08T14:33:13.833Z,2.10
2018-05-08T14:35:41.256Z,2.73
2018-05-08T14:38:09.594Z,2.20
2018-05-08T14:40:37.028Z,2.60
2018-05-08T14:43:05.235Z,2.17
2018-05-08T14:45:32.690Z,2.30
2018-05-08T14:48:00.105Z,2.40
2018-05-08T14:50:27.559Z,2.20
2018-05-08T14:52:55.492Z,2.33
2018-05-08T14:55:22.995Z,2.50
2018-05-08T14:57:51.216Z,3.20
2018-05-08T15:00:18.642Z,2.30
2018-05-08T15:02:46.082Z,2.40
2018-05-08T15:05:13.507Z,2.97
2018-05-08T15:07:40.971Z,2.30
2018-05-08T15:10:08.407Z,2.17
2018-05-08T15:12:36.154Z,2.10
2018-05-08T15:15:03.682Z,2.20
2018-05-08T15:17:31.102Z,1.80
2018-05-08T15:19:59.188Z,1.80
2018-05-08T15:22:26.621Z,2.50
2018-05-08T15:24:54.063Z,2.10
2018-05-08T15:27:21.507Z,1.97
2018-05-08T15:29:48.934Z,2.70
2018-05-08T15:32:17.152Z,2.30
2018-05-08T15:34:44.630Z,2.93
2018-05-08T15:37:12.027Z,2.50
2018-05-08T15:39:39.455Z,2.93
2018-05-08T15:42:06.937Z,2.97
2018-05-08T15:44:34.379Z,2.87
2018-05-08T15:47:01.870Z,3.10
2018-05-08T15:49:29.541Z,3.17
2018-05-08T15:51:56.951Z,2.47
2018-05-08T15:54:25.183Z,2.70
2018-05-08T15:56:52.580Z,3.93
2018-05-08T15:59:20.973Z,2.93
2018-05-08T16:01:48.411Z,3.70
2018-05-08T16:04:15.851Z,2.50
2018-05-08T16:06:43.301Z,2.83
2018-05-08T16:09:10.756Z,3.00
2018-05-08T16:11:38.262Z,2.50
2018-05-08T16:14:05.671Z,2.33
2018-05-08T16:16:33.124Z,2.60
2018-05-08T16:19:00.594Z,3.20
2018-05-08T16:21:28.108Z,2.87
2018-05-08T16:23:55.587Z,3.27
2018-05-08T16:26:23.019Z,3.50
2018-05-08T16:28:50.492Z,3.57
2018-05-08T16:31:18.003Z,3.20
2018-05-08T16:33:45.445Z,3.60
2018-05-08T16:36:12.886Z,3.30
2018-05-08T16:38:40.375Z,3.63
2018-05-08T16:41:07.824Z,3.10
2018-05-08T16:43:35.264Z,4.17
2018-05-08T16:46:02.719Z,3.47
2018-05-08T16:48:30.257Z,3.30
2018-05-08T16:50:57.614Z,4.37
2018-05-08T16:53:25.030Z,3.00
2018-05-08T16:55:52.490Z,4.87
2018-05-08T16:58:19.912Z,3.63
2018-05-08T17:00:47.376Z,3.70
2018-05-08T17:03:14.864Z,4.00
2018-05-08T17:05:42.300Z,4.20
2018-05-08T17:08:09.751Z,3.83
2018-05-08T17:10:37.252Z,3.73
2018-05-08T17:13:04.642Z,4.23
2018-05-08T17:15:32.071Z,4.70
2018-05-08T17:17:59.505Z,4.50
2018-05-08T17:20:26.967Z,3.90
2018-05-08T17:22:54.407Z,4.17
2018-05-08T17:25:22.608Z,3.90
2018-05-08T17:27:50.045Z,4.43
2018-05-08T17:30:17.467Z,4.70
2018-05-08T17:32:44.918Z,4.60
2018-05-08T17:35:12.367Z,3.50
2018-05-08T17:37:39.805Z,4.43
2018-05-08T17:40:07.231Z,4.77
2018-05-08T17:42:34.669Z,6.30
2018-05-08T17:45:02.893Z,5.50
2018-05-08T17:47:30.338Z,4.33
2018-05-08T17:49:57.763Z,4.60
2018-05-08T17:52:25.218Z,7.23
2018-05-08T17:54:52.638Z,5.47
2018-05-08T17:57:20.071Z,5.40
2018-05-08T17:59:47.510Z,5.13
2018-05-08T18:02:14.949Z,5.53
2018-05-08T18:04:43.159Z,5.30
2018-05-08T18:07:10.598Z,4.83
2018-05-08T18:09:38.042Z,4.63
2018-05-08T18:12:05.483Z,5.60
2018-05-08T18:14:32.925Z,5.33
2018-05-08T18:17:00.362Z,5.33
2018-05-08T18:19:27.793Z,5.67
2018-05-08T18:21:55.240Z,4.93
2018-05-08T18:24:22.675Z,5.43
2018-05-08T18:26:50.895Z,5.60
2018-05-08T18:29:18.349Z,5.10
2018-05-08T18:31:45.811Z,4.97
2018-05-08T18:34:13.628Z,4.90
2018-05-08T18:36:41.079Z,5.53
2018-05-08T18:39:08.528Z,5.20
2018-05-08T18:41:35.978Z,5.30
2018-05-08T18:44:03.429Z,5.73
2018-05-08T18:46:30.898Z,5.77
2018-05-08T18:48:58.349Z,5.90
2018-05-08T18:51:25.784Z,5.53
2018-05-08T18:53:53.250Z,5.07
2018-05-08T18:56:20.682Z,4.97
2018-05-08T18:58:48.143Z,5.33
2018-05-08T19:01:15.626Z,5.40
2018-05-08T19:03:43.152Z,5.80
2018-05-08T19:06:10.520Z,5.80
2018-05-08T19:08:37.971Z,5.07
2018-05-08T19:11:11.123Z,5.37
2018-05-08T19:13:39.357Z,5.57
2018-05-08T19:16:06.779Z,4.80
2018-05-08T19:18:39.842Z,5.53
2018-05-08T19:21:07.292Z,6.00
2018-05-08T19:23:34.722Z,5.83
2018-05-08T19:26:02.178Z,6.90
2018-05-08T19:28:35.307Z,5.70
2018-05-08T19:31:02.742Z,5.00
2018-05-08T19:33:30.183Z,5.67
2018-05-08T19:36:03.350Z,5.70
2018-05-08T19:38:30.773Z,5.93
2018-05-08T19:40:58.206Z,6.13
2018-05-08T19:43:25.637Z,6.00
2018-05-08T19:45:53.095Z,6.80
2018-05-08T19:48:20.643Z,5.60
2018-05-08T19:50:48.083Z,5.63
2018-05-08T19:53:16.429Z,5.57
2018-05-08T19:55:43.796Z,5.37
2018-05-08T19:58:13.198Z,6.27
2018-05-08T20:00:40.664Z,6.27
2018-05-08T20:03:08.080Z,5.60
2018-05-08T20:05:35.527Z,6.70
2018-05-08T20:08:02.978Z,5.87
2018-05-08T20:10:30.415Z,5.50
2018-05-08T20:12:57.854Z,6.27
2018-05-08T20:15:25.282Z,5.53
2018-05-08T20:17:53.523Z,6.07
2018-05-08T20:20:20.960Z,6.77
2018-05-08T20:22:48.400Z,6.43
2018-05-08T20:25:15.859Z,5.70
2018-05-08T20:27:43.300Z,5.87
2018-05-08T20:30:10.722Z,5.60
2018-05-08T20:32:38.162Z,6.37
2018-05-08T20:35:05.602Z,6.47
2018-05-08T20:37:33.052Z,5.50
2018-05-08T20:40:00.486Z,6.10
2018-05-08T20:42:28.057Z,5.93
2018-05-08T20:44:55.486Z,6.47
2018-05-08T20:47:22.935Z,5.67
2018-05-08T20:49:50.392Z,5.80
2018-05-08T20:52:18.652Z,6.27
2018-05-08T20:54:46.032Z,7.03
2018-05-08T20:57:13.463Z,5.60
2018-05-08T20:59:40.919Z,5.90
2018-05-08T21:02:08.371Z,6.13
2018-05-08T21:04:35.790Z,6.10
2018-05-08T21:07:03.239Z,6.50
2018-05-08T21:09:30.662Z,6.07
2018-05-08T21:11:58.855Z,5.53
2018-05-08T21:14:26.290Z,5.60
2018-05-08T21:16:53.727Z,5.87
2018-05-08T21:19:21.193Z,5.90
2018-05-08T21:21:48.627Z,5.70
2018-05-08T21:24:16.061Z,5.70
2018-05-08T21:26:43.499Z,6.67
2018-05-08T21:29:16.503Z,5.87
2018-05-08T21:31:43.927Z,6.47
2018-05-08T21:34:11.362Z,6.27
2018-05-08T21:36:38.814Z,5.73
2018-05-08T21:39:06.246Z,6.60
2018-05-08T21:41:33.683Z,5.87
2018-05-08T21:44:01.148Z,6.40
2018-05-08T21:46:28.570Z,6.30
2018-05-08T21:48:56.139Z,5.97
2018-05-08T21:51:23.562Z,5.87
2018-05-08T21:53:51.026Z,6.67
2018-05-08T21:56:18.463Z,6.40
2018-05-08T21:58:45.909Z,6.90
2018-05-08T22:01:13.339Z,6.63
2018-05-08T22:03:40.766Z,6.27
2018-05-08T22:06:08.982Z,5.60
2018-05-08T22:08:36.408Z,6.00
2018-05-08T22:11:03.855Z,5.77
2018-05-08T22:13:31.292Z,5.90
2018-05-08T22:15:58.734Z,5.30
2018-05-08T22:18:26.199Z,5.80
2018-05-08T22:20:53.641Z,5.20
2018-05-08T22:23:21.067Z,5.53
2018-05-08T22:25:48.511Z,5.70
2018-05-08T22:28:15.950Z,4.93
2018-05-08T22:30:44.142Z,4.83
2018-05-08T22:33:11.596Z,4.83
2018-05-08T22:35:39.018Z,4.90
2018-05-08T22:38:06.441Z,4.37
2018-05-08T22:40:33.886Z,5.70
2018-05-08T22:43:01.338Z,4.27
2018-05-08T22:45:28.758Z,4.13
2018-05-08T22:47:56.970Z,4.27
2018-05-08T22:50:24.399Z,5.17
2018-05-08T22:52:51.838Z,5.40
2018-05-08T22:55:19.294Z,4.33
2018-05-08T22:57:46.736Z,4.20
2018-05-08T23:00:14.160Z,4.37
2018-05-08T23:02:41.610Z,5.30
2018-05-08T23:05:09.023Z,4.20
2018-05-08T23:07:37.240Z,4.60
2018-05-08T23:10:04.683Z,4.40
2018-05-08T23:12:32.787Z,4.13
2018-05-08T23:15:00.211Z,5.00
2018-05-08T23:17:27.647Z,4.53
2018-05-08T23:19:55.090Z,4.70
2018-05-08T23:22:22.522Z,3.73
2018-05-08T23:24:49.972Z,4.40
2018-05-08T23:27:17.399Z,4.67
2018-05-08T23:29:44.830Z,4.53
2018-05-08T23:32:13.049Z,5.27
2018-05-08T23:34:40.522Z,4.33
2018-05-08T23:37:07.960Z,4.17
2018-05-08T23:39:35.386Z,4.77
2018-05-08T23:42:02.817Z,5.30
2018-05-08T23:44:30.255Z,4.40
2018-05-08T23:46:57.704Z,4.57
2018-05-08T23:49:25.146Z,4.73
2018-05-08T23:51:52.591Z,4.30
2018-05-08T23:54:20.043Z,4.60
2018-05-08T23:56:47.528Z,4.63
2018-05-08T23:59:15.705Z,5.00
